CYZH

Details ICAO CYZH (YZH)
Name SLAVE LAKE
Region Canada
Timezone America/Edmonton (UTC-7.0)
Plans Departing 10
Arriving 9
Stats Elevation 1,912 ft / 583 m (AMSL)
Location 55.293303° -114.778310°
Runways 1
Magnetic Variation 15.290° E
Sunrise 2017-12-17 16:03:08 UTC / 2017-12-17 09:03:08 Local
Sunset 2017-12-17 23:10:23 UTC / 2017-12-17 16:10:23 Local
Advertisement - Login to hide

Runways

ID Width Length Bearing (true) Bearing (mag) Surface Threshold Offset Overrun Length
10 100 ft / 30 m 5,535 ft / 1,687 m 114.74° 99.45° Asphalt 0 ft / 0 m 0 ft / 0 m
28 100 ft / 30 m 5,535 ft / 1,687 m 294.76° 279.47° Asphalt 557 ft / 170 m 0 ft / 0 m

Map

Weather


0- 5 10 15 20 25 30 35+ Temperature / ° C

Clouds and Precipitation
Forecast for 2017-12-18 00:00 UTC. Updated 19 minutes ago

Ground ~20,000 ft ~40,000 ft Winds

METAR

CYZH 171900Z AUTO 27024G32KT 9SM 04/M03 A2938 RMK CLD MISG SLP976

TAF

TAF CYZH 171841Z 1719/1807 28025G35KT P6SM SCT050 TEMPO 1719/1723 P6SM -SHRA BKN050 FM172300 27020G30KT P6SM FEW050 BECMG 1801/1803 27015G25KT RMK FCST BASED ON AUTO OBS. NXT FCST BY 180100Z

Frequencies

Unicom 123.20 MHz CTAF
Warning: Do not use this data for real-world aviation or navigation. No guarantee of current accuracy is given.